createdAt,value
2023-01-17T00:05:18.565Z,34.72
2023-01-17T00:10:24.902Z,34.03
2023-01-17T00:15:30.829Z,32.90
2023-01-17T00:20:54.197Z,26.23
2023-01-17T00:26:04.943Z,22.45
2023-01-17T00:31:09.442Z,32.60
2023-01-17T00:36:13.990Z,41.10
2023-01-17T00:41:16.760Z,26.52
2023-01-17T00:46:39.630Z,27.92
2023-01-17T00:52:02.419Z,30.73
2023-01-17T00:57:25.042Z,22.17
2023-01-17T01:02:46.783Z,32.80
2023-01-17T01:08:09.852Z,18.90
2023-01-17T01:13:31.889Z,19.20
2023-01-17T01:18:53.607Z,32.75
2023-01-17T01:24:16.323Z,24.48
2023-01-17T01:29:37.975Z,21.35
2023-01-17T01:34:43.340Z,28.65
2023-01-17T01:39:48.809Z,39.72
2023-01-17T01:44:54.924Z,20.38
2023-01-17T01:50:01.933Z,16.73
2023-01-17T01:55:12.957Z,27.02
2023-01-17T02:00:20.652Z,25.20
2023-01-17T02:05:27.008Z,28.42
2023-01-17T02:10:34.751Z,21.38
2023-01-17T02:15:48.476Z,23.65
2023-01-17T02:21:03.960Z,22.95
2023-01-17T02:26:41.294Z,24.73
2023-01-17T02:31:50.840Z,20.40
2023-01-17T02:37:02.113Z,16.92
2023-01-17T02:42:09.594Z,18.40
2023-01-17T02:47:24.629Z,16.35
2023-01-17T02:52:45.089Z,16.52
2023-01-17T02:58:04.546Z,18.95
2023-01-17T03:03:20.744Z,25.88
2023-01-17T03:08:25.862Z,24.17
2023-01-17T03:13:29.959Z,56.88
2023-01-17T03:18:36.966Z,26.27
2023-01-17T03:23:41.028Z,22.70
2023-01-17T03:28:45.064Z,28.35
2023-01-17T03:33:50.515Z,23.38
2023-01-17T03:38:54.558Z,27.23
2023-01-17T03:43:58.604Z,21.83
2023-01-17T03:49:03.939Z,26.95
2023-01-17T03:54:07.975Z,28.73
2023-01-17T03:59:13.257Z,21.02
2023-01-17T04:04:18.814Z,30.08
2023-01-17T04:09:23.106Z,30.15
2023-01-17T04:14:27.396Z,35.22
2023-01-17T04:19:35.472Z,29.90
2023-01-17T04:24:39.556Z,37.88
2023-01-17T04:29:45.343Z,35.53
2023-01-17T04:34:52.054Z,41.55
2023-01-17T04:39:56.028Z,44.80
2023-01-17T04:45:00.112Z,50.83
2023-01-17T04:50:06.232Z,52.95
2023-01-17T04:55:10.658Z,55.85
2023-01-17T05:00:15.896Z,58.20
2023-01-17T05:05:21.539Z,62.75
2023-01-17T05:10:26.158Z,58.13
2023-01-17T05:15:31.120Z,60.15
2023-01-17T05:20:38.674Z,73.70
2023-01-17T05:25:44.882Z,70.35
2023-01-17T05:30:49.074Z,63.70
2023-01-17T05:35:54.513Z,86.55
2023-01-17T05:41:00.589Z,48.03
2023-01-17T05:46:04.909Z,60.35
2023-01-17T05:51:10.333Z,69.18
2023-01-17T05:56:14.393Z,91.40
2023-01-17T06:01:19.770Z,85.80
2023-01-17T06:06:25.550Z,77.40
2023-01-17T06:11:30.743Z,67.10
2023-01-17T06:16:36.381Z,90.13
2023-01-17T06:21:41.994Z,196.32
2023-01-17T06:26:46.066Z,73.30
2023-01-17T06:31:51.821Z,81.38
2023-01-17T06:36:57.196Z,58.55
2023-01-17T06:42:01.325Z,58.90
2023-01-17T06:47:05.766Z,53.22
2023-01-17T06:52:13.642Z,68.75
2023-01-17T06:57:17.638Z,90.85
2023-01-17T07:02:24.664Z,100.65
2023-01-17T07:07:31.377Z,75.05
2023-01-17T07:12:36.942Z,67.45
2023-01-17T07:17:41.107Z,93.18
2023-01-17T07:22:47.474Z,114.57
2023-01-17T07:27:54.811Z,111.78
2023-01-17T07:32:58.996Z,99.07
2023-01-17T07:38:05.859Z,76.88
2023-01-17T07:43:14.295Z,92.35
2023-01-17T07:48:22.205Z,38.07
2023-01-17T07:53:29.371Z,41.15
2023-01-17T07:58:35.846Z,42.28
2023-01-17T08:03:41.291Z,83.35
2023-01-17T08:08:47.140Z,71.35
2023-01-17T08:13:58.037Z,55.95
2023-01-17T08:19:02.045Z,53.67
2023-01-17T08:24:08.239Z,61.60
2023-01-17T08:29:12.853Z,71.00
2023-01-17T08:34:20.164Z,72.32
2023-01-17T08:39:27.753Z,64.95
2023-01-17T08:44:32.322Z,53.35
2023-01-17T08:49:36.579Z,51.08
2023-01-17T08:54:42.828Z,61.20
2023-01-17T08:59:50.359Z,54.33
2023-01-17T09:04:54.488Z,35.47
2023-01-17T09:10:00.122Z,46.47
2023-01-17T09:15:05.304Z,41.95
2023-01-17T09:20:10.745Z,24.73
2023-01-17T09:25:16.705Z,24.23
2023-01-17T09:30:20.899Z,30.52
2023-01-17T09:35:27.769Z,24.45
2023-01-17T09:40:33.933Z,29.75
2023-01-17T09:45:39.048Z,27.45
2023-01-17T09:50:48.827Z,31.48
2023-01-17T09:55:59.845Z,33.22
2023-01-17T10:01:14.797Z,35.15
2023-01-17T10:06:32.624Z,46.42
2023-01-17T10:11:50.254Z,43.15
2023-01-17T10:16:59.514Z,42.80
2023-01-17T10:27:25.615Z,44.63
2023-01-17T10:32:35.142Z,49.63
2023-01-17T10:37:42.729Z,33.57
2023-01-17T10:42:53.615Z,30.40
2023-01-17T10:48:06.129Z,21.42
2023-01-17T10:53:18.456Z,25.40
2023-01-17T10:58:26.879Z,26.67
2023-01-17T11:03:31.567Z,36.38
2023-01-17T11:08:52.204Z,35.95
2023-01-17T11:14:03.235Z,40.03
2023-01-17T11:19:18.075Z,32.00
2023-01-17T11:24:37.822Z,28.65
2023-01-17T11:35:08.393Z,25.85
2023-01-17T11:40:23.585Z,37.15
2023-01-17T11:45:30.984Z,45.13
2023-01-17T11:50:37.560Z,30.63
2023-01-17T11:55:41.857Z,34.22
2023-01-17T12:00:56.815Z,29.67
2023-01-17T12:06:09.285Z,34.53
2023-01-17T12:11:17.807Z,36.30
2023-01-17T12:16:31.280Z,22.15
2023-01-17T12:21:46.555Z,20.83
2023-01-17T12:27:00.451Z,12.77
2023-01-17T12:32:27.730Z,7.13
2023-01-17T12:37:38.852Z,8.68
2023-01-17T12:42:48.866Z,7.00
2023-01-17T12:48:01.989Z,11.35
2023-01-17T12:53:18.547Z,4.43
2023-01-17T12:58:25.816Z,7.72
2023-01-17T13:03:46.653Z,3.40
2023-01-17T13:08:56.933Z,6.45
2023-01-17T13:14:01.240Z,10.32
2023-01-17T13:19:19.781Z,15.77
2023-01-17T13:24:30.292Z,10.82
2023-01-17T13:29:50.670Z,4.10
2023-01-17T13:35:16.719Z,12.43
2023-01-17T13:40:34.535Z,10.82
2023-01-17T13:45:39.988Z,13.35
2023-01-17T13:50:53.207Z,13.05
2023-01-17T13:56:03.408Z,7.75
2023-01-17T14:01:12.903Z,8.68
2023-01-17T14:06:36.155Z,8.60
2023-01-17T14:11:53.938Z,7.95
2023-01-17T14:17:30.060Z,11.07
2023-01-17T14:22:40.813Z,10.15
2023-01-17T14:27:49.270Z,8.15
2023-01-17T14:33:16.706Z,11.25
2023-01-17T14:38:26.127Z,11.55
2023-01-17T14:43:34.997Z,5.38
2023-01-17T14:48:41.576Z,9.90
2023-01-17T14:53:58.211Z,5.65
2023-01-17T14:59:08.261Z,16.25
2023-01-17T15:04:26.877Z,10.15
2023-01-17T15:09:37.024Z,8.82
2023-01-17T15:14:46.415Z,10.15
2023-01-17T15:19:55.129Z,8.07
2023-01-17T15:25:02.862Z,11.13
2023-01-17T15:30:09.700Z,12.02
2023-01-17T15:35:19.028Z,12.02
2023-01-17T15:40:28.072Z,9.70
2023-01-17T15:45:36.180Z,13.10
2023-01-17T15:50:45.922Z,13.15
2023-01-17T15:55:53.745Z,9.27
2023-01-17T16:00:59.327Z,5.70
2023-01-17T16:06:05.088Z,6.80
2023-01-17T16:11:16.309Z,11.40
2023-01-17T16:16:24.652Z,13.45
2023-01-17T16:21:31.768Z,7.88
2023-01-17T16:26:37.238Z,7.18
2023-01-17T16:31:41.900Z,5.32
2023-01-17T16:36:45.994Z,12.32
2023-01-17T16:41:52.255Z,10.07
2023-01-17T16:47:00.415Z,5.63
2023-01-17T16:52:06.176Z,10.00
2023-01-17T16:57:12.745Z,13.88
2023-01-17T17:02:18.861Z,21.15
2023-01-17T17:07:23.330Z,24.77
2023-01-17T17:12:29.327Z,16.92
2023-01-17T17:17:39.559Z,18.15
2023-01-17T17:22:48.814Z,23.25
2023-01-17T17:27:54.603Z,13.77
2023-01-17T17:32:59.558Z,13.63
2023-01-17T17:38:05.773Z,9.27
2023-01-17T17:43:11.173Z,8.23
2023-01-17T17:48:15.191Z,6.65
2023-01-17T17:53:20.915Z,6.32
2023-01-17T17:58:27.374Z,13.00
2023-01-17T18:03:32.757Z,7.28
2023-01-17T18:08:38.984Z,7.95
2023-01-17T18:13:45.656Z,12.25
2023-01-17T18:18:51.690Z,8.07
2023-01-17T18:23:58.873Z,5.85
2023-01-17T18:29:07.673Z,4.18
2023-01-17T18:34:13.117Z,9.68
2023-01-17T18:39:19.261Z,3.42
2023-01-17T18:44:25.361Z,7.63
2023-01-17T18:49:32.698Z,9.20
2023-01-17T18:54:37.086Z,14.15
2023-01-17T18:59:44.399Z,10.68
2023-01-17T19:04:48.860Z,4.65
2023-01-17T19:09:53.254Z,3.42
2023-01-17T19:14:58.643Z,5.45
2023-01-17T19:20:03.786Z,4.32
2023-01-17T19:25:10.177Z,6.38
2023-01-17T19:30:17.889Z,5.03
2023-01-17T19:35:22.806Z,4.90
2023-01-17T19:40:28.799Z,2.65
2023-01-17T19:45:34.257Z,2.90
2023-01-17T19:50:38.357Z,3.53
2023-01-17T19:55:43.418Z,4.97
2023-01-17T20:00:49.017Z,4.97
2023-01-17T20:05:57.769Z,3.58
2023-01-17T20:11:03.467Z,5.80
2023-01-17T20:16:11.499Z,8.55
2023-01-17T20:21:18.383Z,4.00
2023-01-17T20:26:25.999Z,1.55
2023-01-17T20:31:32.349Z,4.55
2023-01-17T20:36:37.225Z,1.98
2023-01-17T20:41:42.698Z,1.55
2023-01-17T20:46:49.777Z,10.52
2023-01-17T20:51:55.715Z,3.10
2023-01-17T20:57:01.496Z,3.42
2023-01-17T21:02:11.005Z,2.50
2023-01-17T21:07:15.135Z,1.88
2023-01-17T21:12:19.367Z,2.58
2023-01-17T21:17:25.453Z,4.45
2023-01-17T21:22:31.149Z,3.60
2023-01-17T21:27:35.641Z,3.90
2023-01-17T21:32:41.097Z,6.57
2023-01-17T21:37:48.885Z,7.15
2023-01-17T21:42:53.656Z,3.30
2023-01-17T21:48:00.094Z,1.90
2023-01-17T21:53:04.642Z,2.10
2023-01-17T21:58:33.547Z,1.85
2023-01-17T22:03:39.154Z,2.42
2023-01-17T22:08:43.477Z,4.65
2023-01-17T22:13:48.579Z,3.90
2023-01-17T22:18:53.958Z,2.22
2023-01-17T22:24:00.561Z,3.35
2023-01-17T22:29:05.586Z,2.25
2023-01-17T22:34:11.161Z,2.70
2023-01-17T22:39:15.502Z,2.78
2023-01-17T22:44:22.105Z,2.05
2023-01-17T22:49:29.947Z,3.63
2023-01-17T22:54:34.074Z,2.88
2023-01-17T22:59:38.608Z,6.85
2023-01-17T23:04:44.106Z,2.47
2023-01-17T23:09:48.259Z,3.47
2023-01-17T23:15:09.558Z,3.22
2023-01-17T23:20:17.744Z,1.05
2023-01-17T23:25:22.443Z,1.85
2023-01-17T23:30:29.975Z,1.55
2023-01-17T23:35:41.689Z,3.75
2023-01-17T23:41:07.951Z,1.55
2023-01-17T23:46:13.984Z,1.23
2023-01-17T23:51:20.092Z,1.65
2023-01-17T23:56:25.974Z,2.05
